Time;durP1;ratioP1;P1;durP2;ratioP2;P2;SDS_P1;SDS_P2;PMS_P1;PMS_P2;Temp;Humidity;BMP_temperature;BMP_pressure;BME280_temperature;BME280_humidity;BME280_pressure;Samples;Min_cycle;Max_cycle;Signal;HPM_P1;HPM_P2
2021/11/09 00:00:50;;;;;;;3.58;1.40;;;22.40;88.50;;;;;;5071278;28;20025;-65
2021/11/09 00:03:18;;;;;;;4.95;1.88;;;22.40;88.60;;;;;;5072256;28;20013;-62
2021/11/09 00:05:52;;;;;;;5.63;2.00;;;22.40;87.80;;;;;;5072081;28;20024;-65
2021/11/09 00:08:23;;;;;;;4.90;1.52;;;22.40;88.10;;;;;;5072415;28;20027;-70
2021/11/09 00:10:52;;;;;;;5.20;1.75;;;22.40;88.20;;;;;;5072551;28;20097;-63
2021/11/09 00:13:20;;;;;;;4.80;1.95;;;22.40;87.90;;;;;;5072451;28;20462;-68
2021/11/09 00:15:48;;;;;;;5.97;1.75;;;22.40;88.00;;;;;;5072443;28;20036;-68
2021/11/09 00:18:16;;;;;;;8.05;1.88;;;22.40;87.70;;;;;;5072249;28;20264;-69
2021/11/09 00:20:45;;;;;;;3.90;1.63;;;22.40;87.90;;;;;;5071045;28;20025;-61
2021/11/09 00:23:13;;;;;;;5.20;1.92;;;22.50;87.90;;;;;;5074930;28;20032;-68
2021/11/09 00:25:41;;;;;;;3.92;1.75;;;22.50;87.60;;;;;;5078563;28;20024;-61
2021/11/09 00:28:11;;;;;;;5.85;2.10;;;22.50;88.10;;;;;;5078566;28;20021;-65
2021/11/09 00:30:40;;;;;;;4.97;1.77;;;22.50;87.60;;;;;;5078788;28;20032;-54
2021/11/09 00:33:08;;;;;;;5.13;1.98;;;22.50;87.70;;;;;;5079062;28;20027;-63
2021/11/09 00:35:36;;;;;;;4.72;1.38;;;22.50;88.20;;;;;;5075718;28;20036;-69
2021/11/09 00:38:06;;;;;;;3.58;1.58;;;22.50;88.10;;;;;;5078918;28;20021;-62
2021/11/09 00:40:35;;;;;;;4.38;1.60;;;22.50;88.30;;;;;;5078943;28;20084;-68
2021/11/09 00:43:09;;;;;;;4.20;2.22;;;22.50;88.40;;;;;;5079066;28;20028;-69
2021/11/09 00:45:36;;;;;;;4.60;1.90;;;22.50;88.20;;;;;;5079931;28;20024;-63
2021/11/09 00:48:05;;;;;;;7.35;2.13;;;22.50;88.50;;;;;;5079669;28;20086;-68
2021/11/09 00:50:33;;;;;;;6.28;1.70;;;22.60;88.40;;;;;;5078445;28;20048;-58
2021/11/09 00:53:01;;;;;;;7.50;2.00;;;22.60;88.20;;;;;;5077983;28;20541;-70
2021/11/09 00:55:29;;;;;;;5.80;2.50;;;22.60;87.50;;;;;;5078275;28;20040;-66
2021/11/09 00:57:56;;;;;;;6.38;2.35;;;22.70;87.70;;;;;;5078755;28;20055;-69
2021/11/09 01:00:28;;;;;;;7.07;2.15;;;22.70;87.40;;;;;;5077178;28;20025;-69
2021/11/09 01:02:56;;;;;;;;;;;22.80;87.70;;;;;;5078999;28;20110;-60
2021/11/09 01:05:25;;;;;;;4.93;1.45;;;22.90;87.80;;;;;;5078411;28;19927;-58
2021/11/09 01:07:57;;;;;;;8.88;1.60;;;22.90;87.70;;;;;;5077091;28;20142;-64
2021/11/09 01:10:27;;;;;;;4.88;1.80;;;23.00;87.00;;;;;;5078614;28;20074;-66
2021/11/09 01:12:55;;;;;;;5.60;1.80;;;23.10;86.70;;;;;;5078416;28;20119;-59
2021/11/09 01:15:23;;;;;;;3.72;1.75;;;23.20;86.70;;;;;;5078280;28;20037;-70
2021/11/09 01:17:52;;;;;;;6.40;2.65;;;23.20;86.20;;;;;;5078900;28;20099;-58
2021/11/09 01:20:22;;;;;;;7.03;2.22;;;23.30;85.70;;;;;;5078035;28;20052;-68
2021/11/09 01:22:53;;;;;;;4.97;1.95;;;23.40;85.30;;;;;;5078381;28;20078;-55
2021/11/09 01:25:21;;;;;;;5.85;2.10;;;23.50;84.70;;;;;;5078643;28;20030;-59
2021/11/09 01:27:49;;;;;;;4.88;1.80;;;23.50;85.40;;;;;;5076693;28;20043;-60
2021/11/09 01:30:19;;;;;;;4.03;1.48;;;23.50;84.80;;;;;;5078328;28;20479;-60
2021/11/09 01:32:49;;;;;;;8.10;2.42;;;23.50;85.40;;;;;;5078650;28;20024;-65
2021/11/09 01:35:17;;;;;;;3.85;1.52;;;23.50;84.10;;;;;;5076275;28;20077;-65
2021/11/09 01:37:45;;;;;;;8.93;2.55;;;23.60;84.90;;;;;;5075162;28;20035;-67
2021/11/09 01:40:13;;;;;;;7.90;1.80;;;23.60;83.60;;;;;;5075159;28;20025;-61
2021/11/09 01:42:40;;;;;;;4.68;1.73;;;23.60;84.70;;;;;;5074722;28;20074;-54
2021/11/09 01:45:14;;;;;;;5.32;1.83;;;23.60;85.10;;;;;;5075055;28;20016;-62
2021/11/09 01:47:43;;;;;;;5.95;1.92;;;23.50;84.80;;;;;;5075441;28;20115;-67
2021/11/09 01:50:14;;;;;;;6.90;2.17;;;23.70;84.80;;;;;;5075100;28;20051;-67
2021/11/09 01:52:42;;;;;;;8.20;2.28;;;23.70;84.30;;;;;;5075304;28;20043;-61
2021/11/09 01:55:12;;;;;;;7.40;1.90;;;23.70;84.90;;;;;;5074872;28;20056;-65
2021/11/09 01:57:40;;;;;;;7.70;2.17;;;23.80;85.00;;;;;;5075072;28;20158;-63
2021/11/09 02:00:15;;;;;;;5.07;1.95;;;23.80;84.10;;;;;;5074458;28;20017;-56
2021/11/09 02:02:44;;;;;;;5.00;2.08;;;23.80;84.40;;;;;;5074953;28;20032;-65
2021/11/09 02:05:13;;;;;;;8.13;1.88;;;23.80;84.40;;;;;;5073465;28;20031;-63
2021/11/09 02:07:51;;;;;;;5.65;2.15;;;23.90;84.30;;;;;;5074566;28;20033;-63
2021/11/09 02:10:24;;;;;;;4.68;1.60;;;23.90;84.50;;;;;;5065573;28;20029;-67
2021/11/09 02:12:52;;;;;;;7.72;2.42;;;23.80;84.80;;;;;;5071957;28;20031;-58
2021/11/09 02:15:20;;;;;;;8.57;2.60;;;23.80;84.80;;;;;;5071413;28;20075;-63
2021/11/09 02:17:49;;;;;;;7.32;2.97;;;23.80;84.30;;;;;;5070354;28;20025;-64
2021/11/09 02:20:19;;;;;;;4.72;1.90;;;23.90;84.10;;;;;;5067794;28;20024;-57
2021/11/09 02:22:47;;;;;;;6.20;2.15;;;23.80;84.70;;;;;;5068899;28;20415;-60
2021/11/09 02:25:18;;;;;;;8.13;2.38;;;23.80;84.40;;;;;;5070991;28;20031;-61
2021/11/09 02:27:50;;;;;;;3.35;1.67;;;23.80;85.00;;;;;;5065808;28;20123;-56
2021/11/09 02:30:23;;;;;;;4.50;2.15;;;23.90;85.40;;;;;;5071210;28;20119;-57
2021/11/09 02:32:51;;;;;;;5.13;1.88;;;23.90;84.50;;;;;;5070898;28;20082;-60
2021/11/09 02:35:22;;;;;;;6.55;2.80;;;23.90;85.30;;;;;;5069954;28;20107;-59
2021/11/09 02:37:54;;;;;;;7.15;2.38;;;23.90;85.00;;;;;;5068783;28;20327;-60
2021/11/09 02:40:21;;;;;;;;;;;23.90;84.70;;;;;;5070998;28;20079;-59
2021/11/09 02:42:52;;;;;;;5.00;2.30;;;24.10;83.80;;;;;;5067384;28;19904;-56
2021/11/09 02:45:29;;;;;;;6.35;2.28;;;24.20;83.40;;;;;;5067239;28;20044;-54
2021/11/09 02:48:07;;;;;;;8.10;2.88;;;24.30;82.30;;;;;;5066323;28;20107;-57
2021/11/09 02:50:39;;;;;;;5.82;2.35;;;24.30;80.80;;;;;;5070747;28;20475;-61
2021/11/09 02:53:15;;;;;;;7.88;3.15;;;24.40;80.80;;;;;;5070376;28;20395;-60
2021/11/09 02:55:47;;;;;;;8.13;3.13;;;24.30;81.20;;;;;;5070795;28;20158;-62
2021/11/09 03:04:07;;;;;;;5.78;2.33;;;24.40;82.30;;;;;;5068656;28;20051;-62
2021/11/09 03:06:32;;;;;;;9.90;4.35;;;24.40;82.50;;;;;;5066568;28;20072;-56
2021/11/09 03:11:42;;;;;;;7.28;2.60;;;24.50;82.40;;;;;;5070601;28;20017;-61
2021/11/09 03:14:10;;;;;;;9.07;3.00;;;24.60;82.40;;;;;;5070760;28;20112;-60
2021/11/09 03:16:40;;;;;;;7.28;2.67;;;24.70;82.50;;;;;;5067097;28;20129;-62
2021/11/09 03:19:37;;;;;;;8.07;2.67;;;24.70;82.40;;;;;;5070625;28;20039;-64
2021/11/09 03:44:23;;;;;;;9.48;2.63;;;25.00;81.50;;;;;;5069497;28;20027;-57
2021/11/09 03:46:56;;;;;;;9.40;2.90;;;24.90;81.40;;;;;;5071245;28;20017;-57
2021/11/09 03:49:27;;;;;;;7.82;2.70;;;25.00;81.60;;;;;;5071948;28;20444;-59
2021/11/09 03:51:56;;;;;;;6.00;2.13;;;25.00;81.20;;;;;;5072490;28;20174;-60
2021/11/09 03:54:28;;;;;;;6.32;2.63;;;25.10;79.20;;;;;;5072072;28;20036;-60
2021/11/09 03:57:21;;;;;;;7.38;2.50;;;25.20;80.30;;;;;;5071963;28;20048;-64
2021/11/09 04:02:44;;;;;;;7.28;2.47;;;25.20;80.30;;;;;;5072359;28;20437;-62
2021/11/09 04:05:10;;;;;;;7.25;2.63;;;25.20;79.40;;;;;;5070278;28;20028;-65
2021/11/09 04:07:46;;;;;;;7.18;2.67;;;25.20;79.20;;;;;;5072124;28;20162;-58
2021/11/09 04:10:20;;;;;;;5.13;2.13;;;25.20;78.80;;;;;;5070846;28;20025;-62
2021/11/09 04:18:25;;;;;;;7.03;2.40;;;25.00;79.80;;;;;;5056074;28;20032;-59
2021/11/09 04:51:02;;;;;;;6.03;2.42;;;24.70;80.00;;;;;;5063510;28;20783;-58
2021/11/09 05:01:50;;;;;;;4.93;2.20;;;24.60;80.70;;;;;;5065041;28;20390;-57
2021/11/09 05:12:18;;;;;;;5.30;2.10;;;24.60;81.50;;;;;;5072925;28;20040;-64
2021/11/09 05:14:46;;;;;;;7.75;2.42;;;24.60;81.50;;;;;;5072492;28;20498;-64
2021/11/09 05:17:13;;;;;;;8.13;3.10;;;24.60;80.00;;;;;;5072781;28;20082;-67
2021/11/09 05:19:40;;;;;;;4.72;2.05;;;24.60;81.20;;;;;;5068847;28;20029;-68
2021/11/09 05:22:08;;;;;;;4.70;1.90;;;24.60;80.80;;;;;;5073278;28;20043;-68
2021/11/09 05:24:36;;;;;;;4.80;2.28;;;24.60;80.70;;;;;;5072125;28;20024;-58
2021/11/09 05:27:03;;;;;;;7.90;2.20;;;24.70;81.00;;;;;;5073135;28;20024;-64
2021/11/09 05:29:31;;;;;;;6.72;2.67;;;24.60;80.60;;;;;;5069297;28;20025;-56
2021/11/09 05:31:59;;;;;;;7.38;2.58;;;24.60;80.90;;;;;;5071361;28;20487;-53
2021/11/09 05:34:29;;;;;;;4.68;2.42;;;24.60;81.00;;;;;;5068728;28;20024;-61
2021/11/09 05:36:58;;;;;;;7.25;2.78;;;24.50;81.00;;;;;;5074894;28;20149;-72
2021/11/09 05:41:59;;;;;;;7.13;1.90;;;24.50;81.60;;;;;;5075111;28;20029;-65
2021/11/09 05:44:28;;;;;;;5.28;1.60;;;24.40;81.90;;;;;;5074791;28;20021;-59
2021/11/09 05:46:56;;;;;;;7.65;2.58;;;24.40;81.80;;;;;;5073743;28;20524;-60
2021/11/09 05:49:25;;;;;;;4.63;2.20;;;24.30;81.80;;;;;;5074609;28;20379;-64
2021/11/09 05:51:52;;;;;;;8.45;2.35;;;24.30;82.00;;;;;;5073236;28;20041;-62
2021/11/09 05:54:20;;;;;;;4.72;1.95;;;24.30;82.20;;;;;;5074335;28;20063;-66
2021/11/09 05:56:47;;;;;;;10.32;2.22;;;24.20;82.00;;;;;;5074314;28;20052;-66
2021/11/09 05:59:14;;;;;;;7.35;2.20;;;24.10;82.30;;;;;;5074784;28;20029;-68
2021/11/09 06:01:47;;;;;;;6.55;2.28;;;24.10;82.60;;;;;;5073342;28;20101;-65
2021/11/09 06:04:15;;;;;;;7.00;2.45;;;24.00;82.90;;;;;;5074380;28;20017;-62
2021/11/09 06:06:43;;;;;;;11.48;2.40;;;24.00;82.90;;;;;;5074111;28;20035;-63
2021/11/09 06:09:10;;;;;;;5.30;1.80;;;24.00;83.00;;;;;;5074200;28;20024;-60
2021/11/09 06:11:38;;;;;;;7.65;2.42;;;24.00;83.10;;;;;;5074204;28;20459;-63
2021/11/09 06:14:07;;;;;;;5.47;1.98;;;24.00;83.40;;;;;;5072660;28;20021;-63
2021/11/09 06:16:36;;;;;;;7.43;2.10;;;24.00;83.20;;;;;;5073754;28;20120;-64
2021/11/09 06:19:04;;;;;;;5.60;2.10;;;23.90;83.40;;;;;;5073269;28;20025;-68
2021/11/09 06:21:33;;;;;;;6.68;2.05;;;23.90;83.20;;;;;;5073631;28;20043;-70
2021/11/09 06:24:01;;;;;;;3.28;1.58;;;23.90;83.80;;;;;;5074041;28;20021;-55
2021/11/09 06:26:29;;;;;;;10.23;2.70;;;23.80;84.00;;;;;;5073737;28;20031;-68
2021/11/09 06:28:59;;;;;;;7.78;2.33;;;23.80;84.50;;;;;;5074425;28;20391;-64
2021/11/09 06:31:29;;;;;;;8.85;2.38;;;23.80;84.30;;;;;;5074088;28;20048;-67
2021/11/09 06:33:57;;;;;;;6.43;2.50;;;23.80;84.20;;;;;;5073613;28;20033;-65
2021/11/09 06:36:24;;;;;;;6.03;2.65;;;23.70;85.00;;;;;;5073555;28;20040;-69
2021/11/09 06:38:52;;;;;;;6.35;3.10;;;23.70;84.70;;;;;;5073966;28;20031;-64
2021/11/09 06:41:23;;;;;;;5.97;1.92;;;23.70;84.80;;;;;;5074163;28;20024;-61
2021/11/09 06:43:50;;;;;;;4.75;1.90;;;23.70;84.60;;;;;;5074275;28;20468;-53
2021/11/09 06:46:18;;;;;;;2.97;1.58;;;23.70;84.50;;;;;;5065299;28;20032;-66
2021/11/09 06:48:47;;;;;;;5.47;2.78;;;23.70;84.40;;;;;;5069237;28;20027;-64
2021/11/09 06:51:15;;;;;;;6.22;2.20;;;23.70;84.70;;;;;;5069721;28;20147;-66
2021/11/09 06:53:43;;;;;;;5.03;2.25;;;23.70;84.80;;;;;;5071307;28;20028;-62
2021/11/09 06:56:10;;;;;;;5.70;1.95;;;23.70;84.80;;;;;;5066898;28;20052;-62
2021/11/09 06:58:38;;;;;;;8.75;2.10;;;23.70;85.20;;;;;;5070523;28;20029;-66
2021/11/09 07:01:06;;;;;;;6.45;2.70;;;23.70;85.20;;;;;;5067814;28;20059;-57
2021/11/09 07:03:34;;;;;;;8.25;2.53;;;23.60;85.40;;;;;;5069433;28;20468;-59
2021/11/09 07:06:04;;;;;;;4.80;2.40;;;23.60;85.40;;;;;;5070748;28;20024;-59
2021/11/09 07:08:33;;;;;;;6.13;2.95;;;23.60;85.50;;;;;;5069453;28;20058;-58
2021/11/09 07:11:03;;;;;;;7.28;3.78;;;23.60;85.50;;;;;;5067985;28;20463;-55
2021/11/09 07:13:31;;;;;;;7.28;4.18;;;23.50;85.80;;;;;;5071098;28;20061;-57
2021/11/09 07:15:59;;;;;;;9.77;4.20;;;23.50;85.60;;;;;;5069988;28;20036;-63
2021/11/09 07:18:26;;;;;;;7.47;4.03;;;23.50;86.00;;;;;;5070854;28;20033;-60
2021/11/09 07:20:54;;;;;;;7.53;3.92;;;23.50;86.10;;;;;;5062450;28;20024;-58
2021/11/09 07:23:21;;;;;;;8.10;3.75;;;23.50;86.10;;;;;;5070838;28;20418;-60
2021/11/09 07:25:49;;;;;;;7.68;3.97;;;23.50;86.20;;;;;;5069415;28;20418;-59
2021/11/09 07:28:19;;;;;;;10.77;6.45;;;23.50;86.10;;;;;;5070569;28;20020;-58
2021/11/09 07:31:12;;;;;;;9.32;6.00;;;23.50;86.50;;;;;;5065866;28;20074;-63
2021/11/09 07:33:35;;;;;;;12.38;8.25;;;23.50;86.50;;;;;;5070385;28;20044;-62
2021/11/09 07:36:02;;;;;;;24.50;19.33;;;23.50;86.50;;;;;;5070640;28;20029;-61
2021/11/09 07:38:30;;;;;;;48.63;35.35;;;23.50;86.50;;;;;;5068855;28;20112;-61
2021/11/09 07:40:57;;;;;;;55.22;42.70;;;23.50;86.90;;;;;;5062411;28;20040;-62
2021/11/09 07:43:25;;;;;;;69.20;53.35;;;23.50;86.80;;;;;;5070610;28;20024;-63
2021/11/09 07:45:53;;;;;;;61.10;50.15;;;23.50;86.90;;;;;;5070612;28;20036;-61
2021/11/09 07:48:21;;;;;;;62.90;49.45;;;23.50;86.80;;;;;;5069752;28;20017;-60
2021/11/09 07:50:49;;;;;;;59.95;48.88;;;23.40;86.70;;;;;;5066330;28;20029;-58
2021/11/09 07:53:18;;;;;;;52.30;43.97;;;23.40;86.80;;;;;;5069962;28;20487;-63
2021/11/09 07:55:52;;;;;;;63.35;48.83;;;23.40;86.60;;;;;;5068629;28;20406;-60
2021/11/09 07:58:29;;;;;;;50.95;41.85;;;23.30;87.30;;;;;;5070288;28;20044;-60
2021/11/09 08:01:07;;;;;;;50.95;41.53;;;23.30;87.30;;;;;;5066469;28;20379;-60
2021/11/09 08:03:40;;;;;;;53.63;41.72;;;23.30;87.50;;;;;;5067199;28;20483;-60
2021/11/09 08:06:27;;;;;;;58.45;42.00;;;23.30;87.60;;;;;;5070213;28;20029;-52
2021/11/09 08:11:41;;;;;;;63.63;49.00;;;23.20;87.80;;;;;;5065180;28;20059;-55
2021/11/09 08:14:09;;;;;;;74.45;53.25;;;23.20;87.90;;;;;;5068996;28;20028;-56
2021/11/09 08:16:37;;;;;;;79.20;57.35;;;23.20;88.00;;;;;;5070034;28;20147;-58
2021/11/09 08:19:05;;;;;;;76.85;54.28;;;23.20;88.30;;;;;;5070013;28;20101;-67
2021/11/09 08:21:34;;;;;;;68.57;52.85;;;23.20;88.50;;;;;;5065426;28;20094;-64
2021/11/09 08:24:02;;;;;;;64.45;49.80;;;23.20;88.40;;;;;;5066730;28;20108;-59
2021/11/09 08:26:31;;;;;;;65.80;48.33;;;23.20;88.30;;;;;;5070028;28;20024;-61
2021/11/09 08:29:02;;;;;;;59.03;44.28;;;23.10;88.40;;;;;;5069281;28;20117;-60
2021/11/09 08:31:31;;;;;;;;;;;23.10;88.40;;;;;;5064479;28;20037;-63
2021/11/09 08:33:59;;;;;;;59.78;45.03;;;23.10;88.50;;;;;;5069836;28;19904;-65
2021/11/09 08:36:30;;;;;;;58.95;44.28;;;23.10;88.60;;;;;;5069226;28;20467;-63
2021/11/09 08:39:03;;;;;;;56.40;41.20;;;23.00;88.70;;;;;;5069157;28;20028;-62
2021/11/09 08:41:57;;;;;;;49.38;38.47;;;23.00;89.30;;;;;;5062985;28;20028;-65
2021/11/09 08:44:21;;;;;;;49.85;38.42;;;23.00;88.90;;;;;;5066189;28;20048;-58
2021/11/09 08:46:52;;;;;;;48.42;37.38;;;23.00;89.10;;;;;;5053965;28;20581;-60
2021/11/09 08:49:22;;;;;;;59.08;38.90;;;23.00;89.00;;;;;;5073730;28;20464;-56
2021/11/09 08:51:51;;;;;;;55.08;39.10;;;23.00;90.50;;;;;;5067229;28;20037;-56
2021/11/09 08:54:28;;;;;;;51.53;37.75;;;23.00;90.90;;;;;;5070964;28;20020;-52
2021/11/09 09:05:14;;;;;;;50.53;33.70;;;23.00;90.90;;;;;;5067992;28;20078;-59
2021/11/09 09:07:43;;;;;;;46.10;32.63;;;23.00;91.00;;;;;;5072815;28;20024;-63
2021/11/09 09:10:15;;;;;;;36.58;28.70;;;23.00;90.90;;;;;;5068553;28;20564;-63
2021/11/09 09:12:43;;;;;;;39.80;29.48;;;23.00;90.70;;;;;;5070829;28;20475;-61
2021/11/09 09:15:13;;;;;;;33.80;27.27;;;23.00;90.90;;;;;;5072478;28;20391;-58
2021/11/09 09:17:41;;;;;;;39.10;29.58;;;23.00;90.70;;;;;;5072945;28;20478;-56
2021/11/09 09:20:24;;;;;;;37.58;28.20;;;22.90;90.80;;;;;;5069481;28;20035;-52
2021/11/09 09:25:39;;;;;;;35.17;25.98;;;22.90;90.70;;;;;;5073194;28;20103;-59
2021/11/09 09:52:31;;;;;;;22.90;17.02;;;22.80;90.40;;;;;;5075786;28;20031;-61
2021/11/09 09:57:32;;;;;;;25.00;16.92;;;22.70;90.40;;;;;;5073042;28;20524;-61
2021/11/09 10:00:03;;;;;;;19.48;15.23;;;22.70;90.40;;;;;;5074119;28;20028;-57
2021/11/09 10:02:45;;;;;;;24.88;16.52;;;22.70;90.50;;;;;;5075360;28;20035;-60
2021/11/09 10:05:14;;;;;;;20.45;15.38;;;22.70;90.60;;;;;;5074248;28;20038;-61
2021/11/09 10:07:47;;;;;;;19.63;15.52;;;22.70;90.50;;;;;;5075249;28;20020;-57
2021/11/09 10:10:22;;;;;;;20.83;14.63;;;22.70;90.60;;;;;;5074131;28;20024;-60
2021/11/09 10:13:04;;;;;;;21.02;14.60;;;22.70;90.60;;;;;;5074934;28;20020;-62
2021/11/09 10:15:33;;;;;;;23.48;14.07;;;22.60;90.50;;;;;;5074273;28;20392;-62
2021/11/09 10:18:05;;;;;;;21.13;14.05;;;22.60;90.50;;;;;;5064897;28;20047;-61
2021/11/09 10:20:43;;;;;;;20.55;13.60;;;22.60;90.60;;;;;;5071860;28;20033;-58
2021/11/09 10:23:24;;;;;;;25.25;14.38;;;22.60;90.60;;;;;;5072203;28;20035;-60
2021/11/09 10:25:53;;;;;;;21.30;15.70;;;22.60;90.60;;;;;;5071759;28;20059;-65
2021/11/09 10:28:33;;;;;;;22.27;14.32;;;22.60;90.60;;;;;;5064329;28;20029;-61
2021/11/09 10:31:04;;;;;;;19.48;14.70;;;22.60;90.60;;;;;;5070628;28;20032;-62
2021/11/09 10:33:40;;;;;;;21.77;14.10;;;22.60;90.60;;;;;;5069549;28;20390;-63
2021/11/09 10:36:24;;;;;;;18.75;13.68;;;22.60;90.70;;;;;;5072154;28;20040;-62
2021/11/09 10:39:25;;;;;;;19.58;14.45;;;22.60;90.70;;;;;;5064965;28;20260;-62
2021/11/09 10:42:18;;;;;;;17.98;13.35;;;22.60;90.70;;;;;;5070009;28;20021;-66
2021/11/09 10:44:58;;;;;;;21.02;14.25;;;22.50;90.60;;;;;;5071136;28;20029;-63
2021/11/09 10:47:34;;;;;;;20.02;13.52;;;22.60;90.70;;;;;;5070823;28;20368;-61
2021/11/09 10:50:09;;;;;;;18.10;11.75;;;22.50;90.60;;;;;;5068497;28;20024;-57
2021/11/09 10:52:39;;;;;;;21.23;13.23;;;22.50;90.60;;;;;;5070460;28;20460;-63
2021/11/09 10:55:24;;;;;;;16.13;12.55;;;22.50;90.60;;;;;;5071579;28;20033;-62
2021/11/09 10:58:13;;;;;;;16.83;12.32;;;22.50;90.60;;;;;;5067460;28;20048;-51
2021/11/09 11:06:18;;;;;;;17.05;12.35;;;22.50;90.60;;;;;;5070366;28;20033;-59
2021/11/09 11:09:08;;;;;;;15.73;11.00;;;22.50;90.60;;;;;;5064349;28;20104;-60
2021/11/09 11:11:40;;;;;;;15.48;11.20;;;22.50;90.60;;;;;;5071283;28;20387;-61
2021/11/09 11:14:10;;;;;;;;;;;22.50;90.60;;;;;;5071430;28;20028;-56
2021/11/09 11:16:59;;;;;;;18.38;11.88;;;22.50;90.70;;;;;;5071157;28;20329;-61
2021/11/09 11:19:46;;;;;;;14.25;11.05;;;22.50;90.60;;;;;;5065365;28;20032;-60
2021/11/09 11:22:21;;;;;;;14.75;10.20;;;22.50;90.60;;;;;;5066471;28;20082;-66
2021/11/09 11:24:56;;;;;;;13.90;10.52;;;22.50;90.60;;;;;;5069591;28;20031;-67
2021/11/09 11:27:27;;;;;;;13.63;10.43;;;22.50;90.60;;;;;;5072851;28;20021;-60
2021/11/09 11:29:55;;;;;;;14.90;10.57;;;22.50;90.60;;;;;;5072894;28;20052;-67
2021/11/09 11:32:25;;;;;;;12.93;8.98;;;22.50;90.60;;;;;;5072521;28;20054;-66
2021/11/09 11:34:54;;;;;;;13.65;10.07;;;22.40;90.40;;;;;;5071658;28;20543;-62
2021/11/09 11:37:22;;;;;;;13.30;9.50;;;22.40;90.60;;;;;;5072632;28;20064;-68
2021/11/09 11:39:54;;;;;;;14.25;9.32;;;22.40;90.50;;;;;;5073104;28;20040;-67
2021/11/09 11:42:22;;;;;;;15.20;10.48;;;22.50;90.60;;;;;;5073256;28;20024;-67
2021/11/09 11:45:02;;;;;;;13.10;9.80;;;22.40;90.50;;;;;;5073413;28;20046;-67
2021/11/09 11:47:29;;;;;;;11.93;8.77;;;22.40;90.50;;;;;;5072048;28;20078;-65
2021/11/09 11:50:05;;;;;;;10.40;8.38;;;22.40;90.50;;;;;;5071533;28;20074;-66
2021/11/09 11:52:49;;;;;;;57.67;21.95;;;22.40;90.50;;;;;;5064824;28;20103;-69
2021/11/09 11:55:38;;;;;;;54.28;21.98;;;22.40;90.60;;;;;;5072137;28;20440;-57
2021/11/09 11:58:11;;;;;;;60.30;23.15;;;22.40;90.60;;;;;;5075052;28;20028;-64
2021/11/09 12:00:56;;;;;;;57.25;23.83;;;22.40;90.60;;;;;;5073177;28;20032;-65
2021/11/09 12:03:24;;;;;;;42.40;21.00;;;22.40;90.60;;;;;;5072581;28;20356;-69
2021/11/09 12:05:55;;;;;;;49.33;19.83;;;22.40;90.60;;;;;;5072525;28;20403;-66
2021/11/09 12:08:36;;;;;;;36.42;16.55;;;22.40;90.60;;;;;;5072691;28;20446;-67
2021/11/09 12:11:35;;;;;;;29.92;14.60;;;22.40;90.70;;;;;;5072417;28;20037;-60
2021/11/09 12:14:09;;;;;;;25.98;12.38;;;22.40;90.70;;;;;;5065543;28;20025;-64
2021/11/09 12:17:03;;;;;;;22.63;11.35;;;22.40;90.70;;;;;;5072825;28;20044;-57
2021/11/09 12:19:40;;;;;;;20.67;11.00;;;22.40;90.70;;;;;;5070236;28;20052;-65
2021/11/09 12:22:13;;;;;;;18.67;9.88;;;22.30;90.60;;;;;;5073845;28;20464;-65
2021/11/09 12:24:58;;;;;;;22.02;10.32;;;22.40;90.70;;;;;;5072446;28;20111;-61
2021/11/09 12:27:44;;;;;;;14.57;9.20;;;22.30;90.70;;;;;;5072879;28;20070;-66
2021/11/09 12:30:12;;;;;;;17.73;9.85;;;22.30;90.70;;;;;;5072479;28;20031;-70
2021/11/09 12:32:43;;;;;;;19.40;9.82;;;22.30;90.70;;;;;;5072077;28;20471;-59
2021/11/09 12:35:17;;;;;;;17.02;9.57;;;22.30;90.80;;;;;;5072197;28;20059;-62
2021/11/09 12:38:30;;;;;;;17.33;8.90;;;22.30;90.80;;;;;;5072290;28;20033;-63
2021/11/09 12:40:58;;;;;;;;;;;22.30;90.80;;;;;;5053746;28;20068;-70
2021/11/09 12:43:31;;;;;;;16.05;8.77;;;22.30;90.80;;;;;;5071963;28;20004;-64
2021/11/09 12:46:31;;;;;;;13.15;8.80;;;22.20;90.80;;;;;;5072112;28;20031;-63
2021/11/09 12:49:10;;;;;;;15.38;7.82;;;22.20;90.80;;;;;;5072009;28;20037;-59
2021/11/09 12:51:41;;;;;;;17.25;8.95;;;22.20;90.90;;;;;;5071669;28;20064;-67
2021/11/09 12:54:18;;;;;;;15.47;8.77;;;22.20;90.90;;;;;;5071971;28;20050;-65
2021/11/09 12:56:58;;;;;;;17.83;8.95;;;22.20;91.00;;;;;;5072049;28;20044;-56
2021/11/09 12:59:30;;;;;;;17.58;8.63;;;22.20;91.00;;;;;;5072335;28;20023;-66
2021/11/09 13:09:49;;;;;;;16.05;8.82;;;22.20;91.00;;;;;;5072708;28;20029;-60
2021/11/09 13:12:19;;;;;;;14.32;8.30;;;22.20;91.10;;;;;;5072375;28;20032;-57
2021/11/09 13:14:59;;;;;;;16.60;8.57;;;22.20;91.10;;;;;;5070779;28;20107;-62
2021/11/09 13:17:43;;;;;;;13.68;7.57;;;22.20;91.10;;;;;;5072441;28;20150;-57
2021/11/09 13:22:54;;;;;;;15.40;7.93;;;22.10;91.10;;;;;;5072189;28;20035;-68
2021/11/09 13:25:30;;;;;;;10.27;7.32;;;22.10;91.10;;;;;;5069618;28;20536;-63
2021/11/09 13:28:02;;;;;;;12.95;7.50;;;22.20;91.20;;;;;;5065872;28;20029;-62
2021/11/09 13:30:29;;;;;;;16.00;8.60;;;22.10;91.20;;;;;;5069920;28;20146;-56
2021/11/09 13:32:58;;;;;;;16.52;8.52;;;22.10;91.10;;;;;;5070061;28;20064;-61
2021/11/09 13:35:30;;;;;;;17.33;8.73;;;22.10;91.20;;;;;;5071993;28;20029;-55
2021/11/09 13:38:08;;;;;;;;;;;22.10;91.20;;;;;;5072227;28;20036;-55
2021/11/09 13:40:41;;;;;;;15.13;8.13;;;22.10;91.20;;;;;;5070156;28;19910;-62
2021/11/09 13:43:10;;;;;;;11.90;7.18;;;22.10;91.20;;;;;;5072555;28;20379;-55
2021/11/09 13:45:39;;;;;;;13.85;7.32;;;22.10;91.20;;;;;;5070277;28;20036;-57
2021/11/09 13:48:20;;;;;;;13.10;7.65;;;22.10;91.20;;;;;;5070922;28;20107;-54
2021/11/09 13:50:51;;;;;;;15.60;8.13;;;22.10;91.10;;;;;;5071251;28;20158;-60
2021/11/09 13:53:41;;;;;;;13.98;7.28;;;22.10;91.10;;;;;;5069969;28;20024;-55
2021/11/09 13:56:17;;;;;;;17.42;7.53;;;22.10;91.20;;;;;;5066812;28;20056;-60
2021/11/09 13:59:01;;;;;;;10.40;6.93;;;22.00;91.20;;;;;;5071426;28;20017;-57
2021/11/09 14:02:14;;;;;;;13.40;7.35;;;22.10;91.20;;;;;;5069456;28;20044;-59
2021/11/09 14:07:55;;;;;;;14.27;6.90;;;22.10;91.40;;;;;;5045146;28;19905;-61
2021/11/09 14:18:31;;;;;;;11.18;6.65;;;22.00;91.20;;;;;;5070795;28;20024;-58
2021/11/09 14:21:04;;;;;;;11.13;6.68;;;22.00;91.20;;;;;;5071002;28;20421;-56
2021/11/09 14:23:37;;;;;;;13.13;6.30;;;22.00;91.20;;;;;;5070776;28;20086;-62
2021/11/09 14:26:17;;;;;;;13.00;6.97;;;22.00;91.20;;;;;;5069601;28;20024;-59
2021/11/09 14:28:44;;;;;;;11.55;7.03;;;22.00;91.30;;;;;;5071376;28;20111;-56
2021/11/09 14:31:26;;;;;;;12.13;6.05;;;22.00;91.30;;;;;;5071967;28;20028;-56
2021/11/09 14:34:13;;;;;;;10.32;6.00;;;22.00;91.30;;;;;;5071572;28;20786;-58
2021/11/09 14:36:47;;;;;;;9.95;5.78;;;22.00;91.30;;;;;;5063621;28;20040;-59
2021/11/09 14:39:16;;;;;;;11.70;6.78;;;22.00;91.30;;;;;;5071419;28;20020;-63
2021/11/09 14:45:13;;;;;;;8.75;5.90;;;22.00;91.30;;;;;;5070828;28;20352;-64
2021/11/09 14:47:44;;;;;;;10.63;6.60;;;22.00;91.30;;;;;;5068045;28;20029;-63
2021/11/09 14:50:23;;;;;;;11.60;5.50;;;22.00;91.30;;;;;;5070874;28;20024;-63
2021/11/09 14:52:52;;;;;;;10.07;5.68;;;22.00;91.30;;;;;;5066058;28;20028;-57
2021/11/09 14:55:26;;;;;;;9.38;6.25;;;22.00;91.30;;;;;;5070372;28;20032;-57
2021/11/09 14:57:55;;;;;;;12.55;5.70;;;22.00;91.30;;;;;;5064166;28;20066;-52
2021/11/09 15:00:24;;;;;;;10.75;6.20;;;22.00;91.30;;;;;;5067162;28;20102;-56
2021/11/09 15:03:03;;;;;;;10.35;5.75;;;21.90;91.30;;;;;;5069392;28;20044;-56
2021/11/09 15:05:34;;;;;;;9.73;5.82;;;21.90;91.30;;;;;;5067957;28;20380;-56
2021/11/09 15:30:09;;;;;;;7.60;5.30;;;21.90;91.30;;;;;;5069971;28;20021;-58
2021/11/09 15:32:35;;;;;;;9.52;5.30;;;21.90;91.30;;;;;;5066910;28;20064;-58
2021/11/09 15:37:59;;;;;;;7.82;4.78;;;21.90;91.30;;;;;;5073075;28;20076;-69
2021/11/09 15:40:25;;;;;;;12.32;6.32;;;21.90;91.30;;;;;;5072883;28;20476;-64
2021/11/09 15:42:53;;;;;;;11.05;5.03;;;21.90;91.30;;;;;;5073189;28;20027;-69
2021/11/09 15:45:20;;;;;;;11.45;5.60;;;21.90;91.30;;;;;;5072997;28;20821;-65
2021/11/09 15:47:48;;;;;;;9.93;5.57;;;21.90;91.30;;;;;;5072648;28;20048;-66
2021/11/09 15:50:15;;;;;;;10.32;5.80;;;21.90;91.30;;;;;;5073018;28;20029;-62
2021/11/09 15:52:43;;;;;;;11.40;6.00;;;21.90;91.30;;;;;;5071076;28;20495;-69
2021/11/09 15:55:10;;;;;;;9.07;5.63;;;21.90;91.30;;;;;;5072336;28;20036;-65
2021/11/09 15:57:38;;;;;;;9.90;5.43;;;21.90;91.30;;;;;;5072563;28;20044;-69
2021/11/09 16:00:11;;;;;;;9.55;5.55;;;21.90;91.30;;;;;;5072803;28;20021;-68
2021/11/09 16:02:37;;;;;;;;;;;21.90;91.30;;;;;;5072408;28;20032;-68
2021/11/09 16:05:07;;;;;;;8.00;5.15;;;21.80;91.30;;;;;;5072536;28;20317;-65
2021/11/09 16:07:35;;;;;;;9.40;5.30;;;21.80;91.30;;;;;;5072519;28;20035;-65
2021/11/09 16:10:05;;;;;;;6.70;4.78;;;21.80;91.30;;;;;;5072942;28;20058;-71